Time;durP1;ratioP1;P1;durP2;ratioP2;P2;SDS_P1;SDS_P2;PMS_P1;PMS_P2;Temp;Humidity;BMP_temperature;BMP_pressure;BME280_temperature;BME280_humidity;BME280_pressure;Samples;Min_cycle;Max_cycle;Signal;HPM_P1;HPM_P2
2022/08/11 04:01:03;;;;;;;4.50;3.77;;;18.30;95.50;;;;;;5920146;23;20486;-76
2022/08/11 04:04:18;;;;;;;4.90;4.40;;;18.30;95.70;;;;;;5008410;28;20454;-76
2022/08/11 04:07:18;;;;;;;4.50;3.83;;;18.20;95.60;;;;;;4961802;28;20775;-76
2022/08/11 04:10:15;;;;;;;5.90;4.03;;;18.20;96.00;;;;;;5008110;28;20950;-76
2022/08/11 04:13:13;;;;;;;5.10;3.87;;;18.20;96.70;;;;;;4956033;28;20478;-76
2022/08/11 04:16:07;;;;;;;8.70;4.60;;;18.10;96.60;;;;;;4945042;28;20459;-76
2022/08/11 04:19:02;;;;;;;5.10;4.20;;;18.00;96.10;;;;;;4988820;28;20562;-76
2022/08/11 04:22:18;;;;;;;5.43;4.20;;;18.10;96.70;;;;;;4987026;28;21024;-76
2022/08/11 04:25:06;;;;;;;4.80;3.87;;;18.10;96.50;;;;;;4909132;29;20467;-76
2022/08/11 04:27:59;;;;;;;5.13;3.93;;;18.10;96.70;;;;;;4981699;28;20464;-76
2022/08/11 04:30:35;;;;;;;4.80;4.10;;;18.10;96.70;;;;;;4988920;28;20444;-76
2022/08/11 04:33:41;;;;;;;6.73;4.03;;;18.10;97.00;;;;;;4987358;28;20819;-76
2022/08/11 04:39:27;;;;;;;7.33;3.90;;;18.10;97.10;;;;;;4987958;28;20447;-76
2022/08/11 04:45:33;;;;;;;4.10;3.67;;;18.10;97.30;;;;;;4987506;28;20474;-76
2022/08/11 05:07:20;;;;;;;6.70;3.70;;;18.10;98.70;;;;;;4987768;28;20452;-70
2022/08/11 05:10:15;;;;;;;9.40;3.93;;;18.10;99.00;;;;;;4987488;28;20451;-70
2022/08/11 05:12:46;;;;;;;4.20;3.80;;;18.00;99.60;;;;;;4988366;28;20818;-69
2022/08/11 05:35:12;;;;;;;19.70;5.77;;;18.10;99.90;;;;;;4986204;28;20478;-77
2022/08/11 05:57:08;;;;;;;7.87;3.70;;;18.40;99.90;;;;;;4987497;28;20446;-77
2022/08/11 05:59:35;;;;;;;7.70;4.20;;;18.40;99.90;;;;;;4987318;28;20463;-78
2022/08/11 06:02:04;;;;;;;5.40;3.20;;;18.50;99.90;;;;;;4986746;28;20499;-77
2022/08/11 06:04:32;;;;;;;4.90;3.63;;;18.50;99.80;;;;;;4986264;28;20468;-77
2022/08/11 06:07:01;;;;;;;4.13;3.30;;;18.60;99.90;;;;;;4987410;28;20467;-77
2022/08/11 06:09:33;;;;;;;5.60;3.70;;;18.70;99.70;;;;;;4986947;28;20464;-77
2022/08/11 06:12:03;;;;;;;8.43;3.47;;;18.70;99.70;;;;;;4987217;28;20486;-78
2022/08/11 06:14:30;;;;;;;4.80;3.00;;;18.80;99.90;;;;;;4986302;28;20456;-78
2022/08/11 06:17:00;;;;;;;4.80;3.50;;;18.90;99.70;;;;;;4987065;28;20490;-77
2022/08/11 06:19:35;;;;;;;6.63;3.77;;;18.90;99.90;;;;;;4987284;28;20466;-77
2022/08/11 06:22:04;;;;;;;4.63;3.10;;;19.00;99.60;;;;;;4986217;28;20874;-77
2022/08/11 06:24:33;;;;;;;5.03;3.40;;;19.00;99.80;;;;;;4986447;28;20464;-77
2022/08/11 06:27:01;;;;;;;4.17;3.70;;;19.00;99.60;;;;;;4986996;28;20928;-78
2022/08/11 06:29:28;;;;;;;3.87;3.47;;;19.10;99.60;;;;;;4987148;28;20459;-78
2022/08/11 06:31:58;;;;;;;6.70;3.57;;;19.20;99.70;;;;;;4986517;28;20479;-77
2022/08/11 06:34:35;;;;;;;4.63;3.80;;;19.20;99.40;;;;;;4985983;28;20559;-77
2022/08/11 06:37:18;;;;;;;7.40;3.80;;;19.30;99.40;;;;;;4986898;28;20465;-78
2022/08/11 06:39:52;;;;;;;8.13;3.63;;;19.30;99.30;;;;;;4986694;28;20455;-77
2022/08/11 06:42:35;;;;;;;7.80;3.80;;;19.40;99.30;;;;;;4985916;28;20496;-69
2022/08/11 06:45:12;;;;;;;7.80;3.50;;;19.50;99.50;;;;;;4985909;28;20939;-69
2022/08/11 06:47:45;;;;;;;6.97;3.77;;;19.50;99.60;;;;;;4986795;28;20471;-69
2022/08/11 06:52:58;;;;;;;4.17;3.77;;;19.70;99.50;;;;;;4953407;28;21030;-70
2022/08/11 07:01:05;;;;;;;5.87;3.50;;;19.90;99.30;;;;;;4986310;28;21099;-69
2022/08/11 07:03:39;;;;;;;5.00;3.63;;;20.00;99.10;;;;;;4986727;28;20809;-69
2022/08/11 07:06:20;;;;;;;5.43;3.30;;;20.10;99.40;;;;;;4986079;28;20440;-69
2022/08/11 07:29:31;;;;;;;4.67;3.27;;;20.70;98.30;;;;;;4909464;29;20443;-77
2022/08/11 07:32:03;;;;;;;6.70;3.57;;;20.80;98.10;;;;;;4980942;28;20471;-77
2022/08/11 07:34:34;;;;;;;4.63;4.23;;;20.90;98.10;;;;;;5002901;28;20444;-77
2022/08/11 07:37:11;;;;;;;7.00;4.10;;;21.00;98.10;;;;;;5005196;28;20511;-78
2022/08/11 07:39:39;;;;;;;6.40;3.87;;;21.00;98.40;;;;;;5002073;28;20888;-78
2022/08/11 07:42:09;;;;;;;6.80;3.50;;;21.10;97.80;;;;;;4990988;28;20499;-78
2022/08/11 07:52:53;;;;;;;4.23;3.83;;;21.50;97.80;;;;;;4990502;28;20785;-78
2022/08/11 07:55:25;;;;;;;4.10;3.43;;;21.60;97.40;;;;;;4990208;28;20451;-78
2022/08/11 08:19:56;;;;;;;4.90;4.27;;;22.50;97.10;;;;;;4988701;28;20443;-77
2022/08/11 08:22:23;;;;;;;3.67;3.37;;;22.60;97.10;;;;;;4988467;28;20507;-77
2022/08/11 08:24:51;;;;;;;9.33;3.57;;;22.70;96.40;;;;;;4988028;28;20467;-77
2022/08/11 08:27:20;;;;;;;4.57;3.20;;;22.80;96.70;;;;;;4988997;28;20463;-77
2022/08/11 08:32:34;;;;;;;4.70;3.10;;;23.00;95.60;;;;;;4988567;28;20454;-77
2022/08/11 08:35:03;;;;;;;5.50;3.37;;;23.10;95.10;;;;;;4988197;28;20594;-77
2022/08/11 08:37:29;;;;;;;4.70;3.23;;;23.20;94.50;;;;;;4988242;28;20844;-77
2022/08/11 08:39:57;;;;;;;3.80;3.00;;;23.30;94.60;;;;;;4988767;28;21131;-77
2022/08/11 08:42:26;;;;;;;5.00;3.27;;;23.50;94.00;;;;;;4988601;28;20504;-78
2022/08/11 08:44:58;;;;;;;7.57;3.40;;;23.50;94.30;;;;;;4987341;28;20482;-77
2022/08/11 08:47:28;;;;;;;4.20;2.80;;;23.70;94.10;;;;;;4988235;28;20471;-77
2022/08/11 08:50:02;;;;;;;3.87;2.60;;;23.80;93.20;;;;;;4988151;28;20469;-77
2022/08/11 08:52:34;;;;;;;3.20;2.80;;;23.90;93.30;;;;;;4988077;28;20475;-77
2022/08/11 08:55:05;;;;;;;5.60;2.90;;;23.90;92.70;;;;;;4987881;28;20464;-77
2022/08/11 08:57:34;;;;;;;3.70;2.73;;;24.10;93.20;;;;;;4988398;28;20469;-77
2022/08/11 09:00:04;;;;;;;6.60;2.80;;;24.10;93.10;;;;;;4987965;28;20463;-77
2022/08/11 09:02:31;;;;;;;3.43;2.80;;;24.30;92.60;;;;;;4987962;28;20503;-77
2022/08/11 09:05:01;;;;;;;3.93;2.27;;;24.40;92.50;;;;;;4987444;28;20455;-77
2022/08/11 09:07:28;;;;;;;6.07;2.70;;;24.50;91.80;;;;;;4987932;28;20459;-77
2022/08/11 09:09:58;;;;;;;6.50;3.10;;;24.60;90.80;;;;;;4988136;28;20463;-77
2022/08/11 09:12:27;;;;;;;5.10;2.87;;;24.70;90.90;;;;;;4989014;28;20479;-78
2022/08/11 09:15:03;;;;;;;5.10;2.90;;;24.80;90.70;;;;;;4988760;28;20478;-78
2022/08/11 09:17:33;;;;;;;3.63;2.50;;;24.90;90.40;;;;;;4988660;28;20455;-78
2022/08/11 09:20:05;;;;;;;4.60;2.40;;;25.00;89.90;;;;;;4988447;28;20455;-78
2022/08/11 09:28:09;;;;;;;3.40;2.67;;;25.20;88.30;;;;;;4987985;28;20709;-78
2022/08/11 09:30:40;;;;;;;4.67;2.50;;;25.40;88.70;;;;;;4987047;28;20491;-77
2022/08/11 09:33:07;;;;;;;4.40;2.70;;;25.50;90.10;;;;;;4987166;28;20464;-78
2022/08/11 09:35:37;;;;;;;3.80;2.33;;;25.50;88.00;;;;;;4986916;28;20486;-76
2022/08/11 09:40:51;;;;;;;2.63;2.40;;;25.70;86.90;;;;;;4987074;28;20466;-77
2022/08/11 09:46:06;;;;;;;4.40;2.60;;;25.80;85.70;;;;;;4986420;28;20663;-76
2022/08/11 09:48:38;;;;;;;4.67;2.40;;;25.90;85.90;;;;;;4987055;28;20463;-77
2022/08/11 09:51:08;;;;;;;5.23;2.30;;;26.00;86.60;;;;;;4988226;28;20467;-77
2022/08/11 09:53:37;;;;;;;3.10;2.33;;;26.10;85.30;;;;;;4988339;28;20471;-77
2022/08/11 09:58:12;;;;;;;3.90;2.40;;;26.20;83.70;;;;;;4986928;28;20461;-76
2022/08/11 09:58:51;;;;;;;2.40;2.20;;;26.30;85.30;;;;;;4987476;28;20456;-76
2022/08/11 10:01:28;;;;;;;3.70;2.40;;;26.40;85.20;;;;;;4987470;28;20507;-76
2022/08/11 10:03:59;;;;;;;5.47;2.20;;;26.50;84.70;;;;;;4987823;28;20461;-77
2022/08/11 10:09:11;;;;;;;2.70;2.30;;;26.60;84.60;;;;;;4970717;28;20440;-77
2022/08/11 10:11:40;;;;;;;6.43;2.60;;;26.70;82.80;;;;;;4987427;28;20479;-77
2022/08/11 10:16:53;;;;;;;2.77;2.33;;;26.80;81.90;;;;;;4987325;28;20469;-79
2022/08/11 10:19:21;;;;;;;11.43;2.43;;;27.00;81.50;;;;;;4987418;28;20460;-77
2022/08/11 10:27:18;;;;;;;2.80;2.53;;;27.30;81.00;;;;;;4987335;28;20442;-76
2022/08/11 10:35:17;;;;;;;3.33;2.40;;;27.50;79.50;;;;;;4985704;28;20431;-72
2022/08/11 10:37:47;;;;;;;3.00;1.93;;;27.50;76.70;;;;;;4986865;28;20459;-73
2022/08/11 10:40:21;;;;;;;2.97;2.00;;;27.60;77.70;;;;;;4986537;28;20976;-73
2022/08/11 10:43:05;;;;;;;4.37;2.77;;;27.60;78.60;;;;;;4986812;28;20488;-72
2022/08/11 10:48:25;;;;;;;4.87;2.00;;;27.80;78.50;;;;;;4961003;28;20432;-72
2022/08/11 10:51:13;;;;;;;2.90;2.10;;;27.90;76.80;;;;;;4986228;28;20472;-73
2022/08/11 10:59:16;;;;;;;5.53;2.77;;;28.00;76.90;;;;;;4987222;28;20931;-77
2022/08/11 11:01:45;;;;;;;2.93;1.90;;;28.10;75.10;;;;;;4986353;28;20509;-78
2022/08/11 11:04:15;;;;;;;4.63;2.13;;;28.20;76.60;;;;;;4985772;28;20553;-76
2022/08/11 11:06:55;;;;;;;2.63;2.43;;;28.20;77.30;;;;;;4986768;28;20525;-76
2022/08/11 11:09:31;;;;;;;5.93;2.17;;;28.30;76.00;;;;;;4986636;28;20451;-78
2022/08/11 11:18:00;;;;;;;3.17;2.10;;;28.50;75.30;;;;;;4986679;28;20479;-76
2022/08/11 11:20:29;;;;;;;2.60;2.33;;;28.60;72.60;;;;;;4980432;28;20456;-79
2022/08/11 11:23:01;;;;;;;6.20;2.57;;;28.60;73.90;;;;;;4975084;28;20496;-80
2022/08/11 11:25:42;;;;;;;3.73;2.20;;;28.70;74.60;;;;;;4972110;28;21178;-77
2022/08/11 11:28:33;;;;;;;2.73;2.03;;;28.80;75.50;;;;;;4970928;28;20461;-78
2022/08/11 11:31:11;;;;;;;6.43;2.83;;;28.90;73.80;;;;;;4979709;28;20484;-77
2022/08/11 11:33:58;;;;;;;3.90;2.10;;;28.90;74.30;;;;;;4989190;28;20899;-75
2022/08/11 11:36:34;;;;;;;2.07;1.87;;;29.00;73.90;;;;;;4990112;28;20450;-75
2022/08/11 11:39:01;;;;;;;2.40;2.20;;;29.00;72.90;;;;;;4991668;28;20446;-75
2022/08/11 11:41:29;;;;;;;3.10;2.00;;;29.10;71.40;;;;;;4991704;28;20480;-75
2022/08/11 11:43:57;;;;;;;3.87;2.20;;;29.10;71.20;;;;;;4989919;28;20452;-75
2022/08/11 11:46:27;;;;;;;2.67;2.17;;;29.20;72.40;;;;;;4990668;28;20822;-75
2022/08/11 11:48:55;;;;;;;2.93;2.03;;;29.30;70.60;;;;;;4990450;28;20944;-77
2022/08/11 11:51:23;;;;;;;2.63;2.20;;;29.40;69.90;;;;;;4990877;28;20479;-76
2022/08/11 11:53:51;;;;;;;2.60;2.00;;;29.40;70.20;;;;;;4990597;28;20462;-78
2022/08/11 11:56:21;;;;;;;7.40;2.43;;;29.50;70.20;;;;;;4989864;28;20455;-76
2022/08/11 12:01:35;;;;;;;3.80;2.07;;;29.60;69.60;;;;;;4989479;28;20491;-77
2022/08/11 12:04:06;;;;;;;2.50;2.03;;;29.70;70.70;;;;;;4989454;28;20459;-76
2022/08/11 12:06:33;;;;;;;4.60;2.00;;;29.70;70.30;;;;;;4989981;28;20443;-77
2022/08/11 12:09:00;;;;;;;2.70;2.00;;;29.70;68.60;;;;;;4989986;28;20554;-76
2022/08/11 12:14:18;;;;;;;2.27;1.87;;;29.90;68.10;;;;;;4991017;28;20904;-76
2022/08/11 12:16:46;;;;;;;4.83;1.90;;;29.90;69.30;;;;;;4990717;28;20868;-76
2022/08/11 12:19:15;;;;;;;2.60;1.83;;;30.00;67.70;;;;;;4989773;28;20482;-76
2022/08/11 12:27:19;;;;;;;7.60;2.53;;;30.00;67.20;;;;;;4989375;28;20493;-76
2022/08/11 12:27:20;;;;;;;1.73;1.63;;;30.10;69.30;;;;;;4977754;28;20444;-76
2022/08/11 12:29:50;;;;;;;2.40;2.10;;;30.10;67.70;;;;;;4970785;28;20454;-76
2022/08/11 12:32:17;;;;;;;5.20;2.33;;;30.20;67.50;;;;;;4971168;28;20997;-76
2022/08/11 12:34:44;;;;;;;4.33;2.03;;;30.20;66.00;;;;;;4969890;28;20467;-76
2022/08/11 12:37:13;;;;;;;2.87;2.10;;;30.20;69.20;;;;;;4979876;28;20482;-76
2022/08/11 12:45:27;;;;;;;2.33;1.83;;;30.30;67.60;;;;;;4988393;28;20411;-76
2022/08/11 12:53:48;;;;;;;2.47;1.70;;;30.50;66.10;;;;;;4928707;29;20442;-75
2022/08/11 13:07:17;;;;;;;2.20;2.00;;;30.70;65.60;;;;;;4984023;28;20543;-75
2022/08/11 13:09:46;;;;;;;5.17;3.90;;;30.80;65.90;;;;;;4976721;28;20849;-75
2022/08/11 13:14:59;;;;;;;6.47;1.90;;;30.90;66.10;;;;;;4985354;28;20419;-76
2022/08/11 13:17:29;;;;;;;1.97;1.77;;;31.00;65.00;;;;;;4969688;28;20465;-75
2022/08/11 13:19:58;;;;;;;3.50;1.87;;;31.10;64.30;;;;;;4981079;28;20527;-76
2022/08/11 13:22:26;;;;;;;2.63;2.13;;;31.20;63.50;;;;;;4973159;28;20497;-75
2022/08/11 13:24:55;;;;;;;4.43;2.17;;;31.20;65.50;;;;;;4978938;28;20457;-71
2022/08/11 13:27:23;;;;;;;4.80;2.07;;;31.20;67.90;;;;;;4978022;28;20891;-71
2022/08/11 13:31:09;;;;;;;2.23;1.90;;;31.20;67.90;;;;;;4980100;28;20900;-69
2022/08/11 13:32:42;;;;;;;4.60;3.47;;;31.20;65.40;;;;;;4986921;28;20502;-68
2022/08/11 13:35:12;;;;;;;2.47;1.60;;;31.30;66.80;;;;;;4986533;28;20514;-66
2022/08/11 13:37:39;;;;;;;2.93;1.80;;;31.30;67.20;;;;;;4987096;28;20526;-65
2022/08/11 13:40:08;;;;;;;3.90;1.87;;;31.30;65.70;;;;;;4986783;28;20842;-66
2022/08/11 13:42:36;;;;;;;3.37;1.87;;;31.30;65.90;;;;;;4987452;28;20505;-66
2022/08/11 13:45:05;;;;;;;5.40;2.10;;;31.30;64.80;;;;;;4985470;28;20794;-66
2022/08/11 13:47:32;;;;;;;5.80;1.97;;;31.30;66.50;;;;;;4987784;28;20459;-66
2022/08/11 13:50:01;;;;;;;3.50;1.87;;;31.30;66.20;;;;;;4987347;28;20456;-68
2022/08/11 13:52:29;;;;;;;3.10;1.70;;;31.40;64.90;;;;;;4987120;28;20480;-68
2022/08/11 13:54:56;;;;;;;8.43;1.97;;;31.40;64.20;;;;;;4986268;28;20960;-68
2022/08/11 13:57:24;;;;;;;3.57;1.70;;;31.50;67.10;;;;;;4987640;28;20466;-68
2022/08/11 14:00:08;;;;;;;4.63;2.03;;;31.50;66.70;;;;;;4987107;28;20459;-65
2022/08/11 14:02:37;;;;;;;2.70;1.80;;;31.50;66.00;;;;;;4986826;28;20495;-70
2022/08/11 14:05:11;;;;;;;2.57;2.00;;;31.50;70.60;;;;;;4985929;28;20460;-70
2022/08/11 14:07:42;;;;;;;3.90;1.77;;;31.50;66.60;;;;;;4987032;28;20460;-68
2022/08/11 14:10:12;;;;;;;5.07;2.00;;;31.50;67.80;;;;;;4987152;28;20466;-66
2022/08/11 14:15:31;;;;;;;4.17;1.80;;;31.60;67.60;;;;;;4984826;28;21071;-73
2022/08/11 14:18:05;;;;;;;2.50;1.80;;;31.60;66.70;;;;;;4983170;28;20479;-67
2022/08/11 14:23:17;;;;;;;3.07;1.77;;;31.60;67.20;;;;;;4983794;28;20577;-68
2022/08/11 14:28:25;;;;;;;2.30;1.80;;;31.60;65.30;;;;;;4985149;28;20475;-68
2022/08/11 14:30:56;;;;;;;3.43;1.87;;;31.60;63.60;;;;;;4983276;28;20859;-68
2022/08/11 14:33:23;;;;;;;3.13;1.80;;;31.70;61.00;;;;;;4986444;28;20454;-66
2022/08/11 14:35:51;;;;;;;4.80;1.70;;;31.70;62.80;;;;;;4986223;28;20460;-67
2022/08/11 14:38:19;;;;;;;4.27;2.47;;;31.70;62.80;;;;;;4969824;28;20461;-69
2022/08/11 14:49:08;;;;;;;2.00;1.80;;;31.80;63.20;;;;;;4980212;28;20495;-75
2022/08/11 14:51:36;;;;;;;2.60;1.70;;;31.90;62.40;;;;;;4985358;28;20494;-76
2022/08/11 14:56:45;;;;;;;7.03;2.13;;;31.80;61.40;;;;;;4984566;28;20530;-75
2022/08/11 14:59:13;;;;;;;3.53;1.70;;;31.90;62.80;;;;;;4967154;28;20448;-75
2022/08/11 15:04:22;;;;;;;6.50;1.90;;;31.90;62.50;;;;;;4932343;28;20489;-76
2022/08/11 15:06:52;;;;;;;1.50;1.40;;;31.90;60.50;;;;;;4975005;28;20471;-76
2022/08/11 15:09:19;;;;;;;5.20;1.73;;;31.90;62.00;;;;;;4979456;28;20457;-75
2022/08/11 15:17:16;;;;;;;3.67;1.80;;;32.00;63.50;;;;;;4973050;28;20431;-70
2022/08/11 15:24:18;;;;;;;3.37;1.90;;;32.00;63.00;;;;;;4971853;28;20467;-69
2022/08/11 15:25:18;;;;;;;3.23;1.90;;;32.10;61.70;;;;;;4945081;28;20447;-70
2022/08/11 15:38:57;;;;;;;3.90;2.03;;;32.30;62.50;;;;;;4966183;28;20990;-69
2022/08/11 15:47:25;;;;;;;4.03;2.10;;;32.40;59.80;;;;;;4906553;29;20439;-74
2022/08/11 15:49:55;;;;;;;5.67;2.20;;;32.40;60.20;;;;;;4906267;29;20473;-70
2022/08/11 15:52:27;;;;;;;2.77;1.83;;;32.50;62.00;;;;;;4935825;28;20476;-70
2022/08/11 15:54:58;;;;;;;2.07;1.87;;;32.50;60.50;;;;;;4968406;28;20449;-70
2022/08/11 16:05:44;;;;;;;4.97;2.80;;;32.60;60.90;;;;;;4969227;28;20435;-68
2022/08/11 16:08:13;;;;;;;3.30;2.60;;;32.60;62.90;;;;;;4969945;28;20462;-69
2022/08/11 16:10:42;;;;;;;2.87;2.00;;;32.60;60.60;;;;;;4969546;28;21002;-71
2022/08/11 16:16:15;;;;;;;2.80;2.30;;;32.50;60.60;;;;;;4969590;28;20423;-69
2022/08/11 16:18:45;;;;;;;4.27;2.30;;;32.60;61.60;;;;;;4969498;28;20500;-70
2022/08/11 16:21:16;;;;;;;6.47;2.20;;;32.50;61.60;;;;;;4969870;28;21083;-69
2022/08/11 16:23:46;;;;;;;5.13;2.60;;;32.50;62.10;;;;;;4969766;28;20496;-69
2022/08/11 16:26:18;;;;;;;3.17;2.03;;;32.50;61.20;;;;;;4969068;28;20474;-69
2022/08/11 16:28:45;;;;;;;3.03;1.80;;;32.40;62.30;;;;;;4969205;28;20464;-67
2022/08/11 16:31:13;;;;;;;7.13;2.23;;;32.50;60.80;;;;;;4977915;28;20475;-69
2022/08/11 16:33:42;;;;;;;4.13;2.53;;;32.40;59.90;;;;;;4980771;28;20445;-69
2022/08/11 16:38:55;;;;;;;2.83;2.47;;;32.40;60.50;;;;;;4988788;28;20454;-70
2022/08/11 16:47:00;;;;;;;3.80;1.87;;;32.30;61.10;;;;;;4988045;28;20516;-63
2022/08/11 16:49:31;;;;;;;5.30;1.90;;;32.30;63.30;;;;;;4969167;28;20515;-68
2022/08/11 16:52:02;;;;;;;3.07;1.70;;;32.20;62.60;;;;;;4968833;28;20491;-68
2022/08/11 16:54:31;;;;;;;1.77;1.53;;;32.20;61.60;;;;;;4968975;28;20453;-68
2022/08/11 16:59:12;;;;;;;2.63;1.97;;;32.10;61.00;;;;;;4968923;28;20464;-67
2022/08/11 16:59:50;;;;;;;3.23;1.87;;;32.10;61.00;;;;;;4969105;28;20547;-67
2022/08/11 17:13:07;;;;;;;3.30;2.00;;;32.00;59.50;;;;;;4968681;28;20495;-68
2022/08/11 17:13:36;;;;;;;3.30;2.40;;;31.60;59.40;;;;;;4968215;28;20495;-64
2022/08/11 17:16:10;;;;;;;2.93;2.60;;;31.60;60.90;;;;;;4979082;28;20832;-67
2022/08/11 17:18:43;;;;;;;4.00;2.33;;;31.50;59.00;;;;;;4987664;28;20460;-67
2022/08/11 17:21:15;;;;;;;4.03;2.20;;;31.40;59.00;;;;;;4988070;28;20498;-67
2022/08/11 17:23:48;;;;;;;3.37;2.40;;;31.30;59.60;;;;;;4988169;28;20505;-67
2022/08/11 17:26:20;;;;;;;5.87;2.40;;;31.20;58.80;;;;;;4987447;28;20447;-67
2022/08/11 17:28:55;;;;;;;2.43;2.00;;;31.20;59.80;;;;;;4988118;28;20444;-67
2022/08/11 17:36:53;;;;;;;5.70;3.03;;;31.00;58.60;;;;;;4987595;28;20440;-67
2022/08/11 17:39:23;;;;;;;3.73;3.10;;;30.90;59.80;;;;;;4987633;28;20551;-67
2022/08/11 17:50:12;;;;;;;3.70;3.00;;;30.70;60.10;;;;;;4985549;28;20439;-67
2022/08/11 18:00:54;;;;;;;3.10;2.53;;;30.30;61.10;;;;;;4987222;28;21029;-67
2022/08/11 18:03:32;;;;;;;3.77;2.30;;;30.30;60.80;;;;;;4987347;28;20542;-68
2022/08/11 18:06:02;;;;;;;4.93;2.73;;;30.20;60.50;;;;;;4986681;28;20466;-72
